Time,TemperatureF,DewpointF,PressureIn,WindDirection,WindDirectionDegrees,WindSpeedMPH,WindSpeedGustMPH,Humidity,HourlyPrecipIn,Conditions,Clouds,dailyrainin,SoftwareType,DateUTC
2013-03-21 00:00:00,23.3,10.3,30.08,NNW,343,3.5,3.5,57,0.00,CLR,,0.00,WeatherDisplay:10.37,2013-03-21 04:00:00,
2013-03-21 00:01:00,23.3,10.3,30.08,NNW,343,2.3,2.3,57,0.00,CLR,,0.00,WeatherDisplay:10.37,2013-03-21 04:01:00,
2013-03-21 00:04:00,23.2,10.2,30.08,NNW,343,2.0,2.0,57,0.00,SCT,,0.00,WeatherDisplay:10.37,2013-03-21 04:04:00,
2013-03-21 00:09:00,23.1,10.1,30.08,NNW,343,1.1,1.1,57,0.00,SCT,,0.00,WeatherDisplay:10.37,2013-03-21 04:09:00,
2013-03-21 00:14:00,23.0,10.4,30.08,NNW,343,3.5,3.5,58,0.00,SCT,,0.00,WeatherDisplay:10.37,2013-03-21 04:14:00,
2013-03-21 00:19:00,22.9,10.3,30.08,NNW,343,1.1,1.1,58,0.00,SCT,,0.00,WeatherDisplay:10.37,2013-03-21 04:19:00,
2013-03-21 00:24:00,22.8,10.2,30.08,NNW,343,0.0,0.0,58,0.00,SCT,,0.00,WeatherDisplay:10.37,2013-03-21 04:24:00,
2013-03-21 00:29:00,22.6,10.4,30.08,NNW,343,0.0,0.0,59,0.00,SCT,,0.00,WeatherDisplay:10.37,2013-03-21 04:29:00,
2013-03-21 00:34:00,22.5,10.3,30.08,NNW,343,0.0,0.0,59,0.00,SCT,,0.00,WeatherDisplay:10.37,2013-03-21 04:34:00,
2013-03-21 00:39:00,22.3,10.1,30.08,NNW,343,0.0,0.0,59,0.00,SCT,,0.00,WeatherDisplay:10.37,2013-03-21 04:39:00,
2013-03-21 00:44:00,22.2,10.4,30.08,NNW,343,1.1,1.1,60,0.00,SCT,,0.00,WeatherDisplay:10.37,2013-03-21 04:44:00,
2013-03-21 00:49:00,22.1,10.3,30.07,NNW,343,1.1,0.0,60,0.00,SCT,,0.00,WeatherDisplay:10.37,2013-03-21 04:49:00,
2013-03-21 00:54:00,22.0,10.2,30.07,NNW,343,1.1,0.0,60,0.00,SCT,,0.00,WeatherDisplay:10.37,2013-03-21 04:54:00,
2013-03-21 00:59:00,22.0,10.6,30.07,NNW,343,0.0,0.0,61,0.00,SCT,,0.00,WeatherDisplay:10.37,2013-03-21 04:59:00,
2013-03-21 01:04:00,21.9,10.5,30.07,NNW,343,0.0,0.0,61,0.00,CLR,,0.00,WeatherDisplay:10.37,2013-03-21 05:04:00,
2013-03-21 01:09:00,21.8,10.4,30.07,NNW,343,1.1,0.0,61,0.00,CLR,,0.00,WeatherDisplay:10.37,2013-03-21 05:09:00,
2013-03-21 01:14:00,21.7,10.3,30.07,NNW,343,0.0,0.0,61,0.00,CLR,,0.00,WeatherDisplay:10.37,2013-03-21 05:14:00,
2013-03-21 01:19:00,21.7,10.3,30.07,NNW,343,1.1,1.1,61,0.00,CLR,,0.00,WeatherDisplay:10.37,2013-03-21 05:19:00,
2013-03-21 01:24:00,21.6,10.2,30.07,NNW,343,2.3,2.3,61,0.00,CLR,,0.00,WeatherDisplay:10.37,2013-03-21 05:24:00,
2013-03-21 01:29:00,21.5,10.5,30.07,NNW,343,0.0,0.0,62,0.00,CLR,,0.00,WeatherDisplay:10.37,2013-03-21 05:29:00,
2013-03-21 01:34:00,21.4,10.4,30.07,NNW,343,0.0,0.0,62,0.00,CLR,,0.00,WeatherDisplay:10.37,2013-03-21 05:34:00,
2013-03-21 01:39:00,21.3,10.3,30.07,NNW,343,0.0,0.0,62,0.00,CLR,,0.00,WeatherDisplay:10.37,2013-03-21 05:39:00,
2013-03-21 01:44:00,21.3,10.7,30.06,NNW,343,1.1,0.0,63,0.00,CLR,,0.00,WeatherDisplay:10.37,2013-03-21 05:44:00,
2013-03-21 01:49:00,21.3,10.7,30.06,NNW,343,1.1,1.1,63,0.00,CLR,,0.00,WeatherDisplay:10.37,2013-03-21 05:49:00,
2013-03-21 01:54:00,21.3,10.7,30.06,NNW,343,3.5,3.5,63,0.00,CLR,,0.00,WeatherDisplay:10.37,2013-03-21 05:54:00,
2013-03-21 01:59:00,21.3,10.7,30.06,NNW,343,1.1,1.1,63,0.00,CLR,,0.00,WeatherDisplay:10.37,2013-03-21 05:59:00,
2013-03-21 02:04:00,21.2,10.6,30.06,NNW,343,0.0,0.0,63,0.00,CLR,,0.00,WeatherDisplay:10.37,2013-03-21 06:04:00,
2013-03-21 02:09:00,21.2,10.6,30.07,NNW,343,2.3,2.3,63,0.00,CLR,,0.00,WeatherDisplay:10.37,2013-03-21 06:09:00,
2013-03-21 02:14:00,21.2,10.6,30.06,NNW,343,2.3,2.3,63,0.00,CLR,,0.00,WeatherDisplay:10.37,2013-03-21 06:14:00,
2013-03-21 02:19:00,21.2,10.6,30.06,NNW,343,0.0,0.0,63,0.00,CLR,,0.00,WeatherDisplay:10.37,2013-03-21 06:19:00,
2013-03-21 02:24:00,21.1,10.8,30.06,NNW,343,1.1,1.1,64,0.00,CLR,,0.00,WeatherDisplay:10.37,2013-03-21 06:24:00,
2013-03-21 02:29:00,21.1,10.8,30.06,NNW,343,1.1,1.1,64,0.00,CLR,,0.00,WeatherDisplay:10.37,2013-03-21 06:29:00,
2013-03-21 02:34:00,20.9,10.6,30.06,NNW,343,1.1,1.1,64,0.00,CLR,,0.00,WeatherDisplay:10.37,2013-03-21 06:34:00,
2013-03-21 02:39:00,20.8,10.5,30.06,NNW,343,2.3,2.3,64,0.00,CLR,,0.00,WeatherDisplay:10.37,2013-03-21 06:39:00,
2013-03-21 02:44:00,20.8,10.5,30.06,NNW,343,2.3,2.3,64,0.00,CLR,,0.00,WeatherDisplay:10.37,2013-03-21 06:44:00,
2013-03-21 02:49:00,20.7,10.8,30.06,NNW,343,2.3,2.3,65,0.00,CLR,,0.00,WeatherDisplay:10.37,2013-03-21 06:49:00,
2013-03-21 02:54:00,20.6,10.7,30.06,NNW,343,1.0,0.0,65,0.00,CLR,,0.00,WeatherDisplay:10.37,2013-03-21 06:54:00,
2013-03-21 02:59:00,20.5,10.6,30.06,NNW,343,1.1,1.1,65,0.00,CLR,,0.00,WeatherDisplay:10.37,2013-03-21 06:59:00,
2013-03-21 03:04:00,20.4,10.5,30.06,NNW,343,1.1,0.0,65,0.00,CLR,,0.00,WeatherDisplay:10.37,2013-03-21 07:04:00,
2013-03-21 03:09:00,20.4,10.5,30.06,NNW,343,1.0,1.0,65,0.00,CLR,,0.00,WeatherDisplay:10.37,2013-03-21 07:09:00,
2013-03-21 03:14:00,20.4,10.8,30.06,NNW,343,2.0,2.0,66,0.00,CLR,,0.00,WeatherDisplay:10.37,2013-03-21 07:14:00,
2013-03-21 03:20:00,20.3,10.7,30.05,NNW,343,0.0,0.0,66,0.00,CLR,,0.00,WeatherDisplay:10.37,2013-03-21 07:20:00,
2013-03-21 03:25:00,20.2,10.6,30.05,NNW,343,2.3,2.3,66,0.00,CLR,,0.00,WeatherDisplay:10.37,2013-03-21 07:25:00,
2013-03-21 03:30:00,20.2,10.6,30.05,NNW,343,1.1,0.0,66,0.00,CLR,,0.00,WeatherDisplay:10.37,2013-03-21 07:30:00,
2013-03-21 03:35:00,20.1,10.6,30.05,NNW,343,1.1,1.1,66,0.00,CLR,,0.00,WeatherDisplay:10.37,2013-03-21 07:35:00,
2013-03-21 03:40:00,20.0,10.5,30.05,NNW,343,0.0,0.0,66,0.00,CLR,,0.00,WeatherDisplay:10.37,2013-03-21 07:40:00,
2013-03-21 03:45:00,19.9,10.7,30.05,NNW,343,1.1,0.0,67,0.00,CLR,,0.00,WeatherDisplay:10.37,2013-03-21 07:45:00,
2013-03-21 03:50:00,19.8,10.6,30.04,NNW,343,2.3,0.0,67,0.00,CLR,,0.00,WeatherDisplay:10.37,2013-03-21 07:50:00,
2013-03-21 03:55:00,19.8,10.6,30.05,NNW,343,2.3,2.3,67,0.00,CLR,,0.00,WeatherDisplay:10.37,2013-03-21 07:55:00,
2013-03-21 04:00:00,19.8,10.6,30.04,NNW,343,2.3,2.3,67,0.00,CLR,,0.00,WeatherDisplay:10.37,2013-03-21 08:00:00,
2013-03-21 04:05:00,19.7,10.5,30.04,NNW,343,2.3,0.0,67,0.00,CLR,,0.00,WeatherDisplay:10.37,2013-03-21 08:05:00,
2013-03-21 04:10:00,19.7,10.8,30.04,NNW,343,2.3,2.3,68,0.00,CLR,,0.00,WeatherDisplay:10.37,2013-03-21 08:10:00,
2013-03-21 04:15:00,19.7,10.8,30.04,NNW,340,2.3,2.3,68,0.00,CLR,,0.00,WeatherDisplay:10.37,2013-03-21 08:15:00,
2013-03-21 04:20:00,19.7,10.8,30.04,NNW,332,4.6,4.6,68,0.00,CLR,,0.00,WeatherDisplay:10.37,2013-03-21 08:20:00,
2013-03-21 04:25:00,19.7,10.8,30.03,NNW,332,3.5,3.5,68,0.00,CLR,,0.00,WeatherDisplay:10.37,2013-03-21 08:25:00,
2013-03-21 04:30:00,19.6,10.7,30.03,NNW,332,3.5,3.5,68,0.00,CLR,,0.00,WeatherDisplay:10.37,2013-03-21 08:30:00,
2013-03-21 04:35:00,19.5,10.6,30.03,NNW,331,2.0,2.0,68,0.00,CLR,,0.00,WeatherDisplay:10.37,2013-03-21 08:35:00,
2013-03-21 04:40:00,19.4,10.9,30.03,NNW,331,2.3,2.3,69,0.00,CLR,,0.00,WeatherDisplay:10.37,2013-03-21 08:40:00,
2013-03-21 04:45:00,19.3,10.8,30.03,NNW,331,0.0,0.0,69,0.00,CLR,,0.00,WeatherDisplay:10.37,2013-03-21 08:45:00,
2013-03-21 04:50:00,19.2,10.7,30.03,NNW,330,3.5,0.0,69,0.00,CLR,,0.00,WeatherDisplay:10.37,2013-03-21 08:50:00,
2013-03-21 04:55:00,19.3,10.8,30.02,NNW,331,2.3,2.3,69,0.00,CLR,,0.00,WeatherDisplay:10.37,2013-03-21 08:55:00,
2013-03-21 05:00:00,19.3,10.8,30.02,NNW,331,2.0,2.0,69,0.00,CLR,,0.00,WeatherDisplay:10.37,2013-03-21 09:00:00,
2013-03-21 05:05:00,19.2,10.7,30.02,NNW,331,1.1,1.1,69,0.00,CLR,,0.00,WeatherDisplay:10.37,2013-03-21 09:05:00,
2013-03-21 05:10:00,19.2,10.7,30.02,NNW,331,3.0,3.0,69,0.00,CLR,,0.00,WeatherDisplay:10.37,2013-03-21 09:10:00,
2013-03-21 05:15:00,19.0,10.8,30.02,NNW,331,2.3,0.0,70,0.00,CLR,,0.00,WeatherDisplay:10.37,2013-03-21 09:15:00,
2013-03-21 05:20:00,19.0,10.8,30.02,NNW,331,2.3,2.3,70,0.00,CLR,,0.00,WeatherDisplay:10.37,2013-03-21 09:20:00,
2013-03-21 05:25:00,19.0,10.8,30.02,NNW,330,3.0,3.0,70,0.00,CLR,,0.00,WeatherDisplay:10.37,2013-03-21 09:25:00,
2013-03-21 05:30:00,19.0,10.8,30.02,NNW,331,4.0,4.0,70,0.00,CLR,,0.00,WeatherDisplay:10.37,2013-03-21 09:30:00,
2013-03-21 05:35:00,19.0,10.8,30.02,NNW,331,3.0,3.0,70,0.00,CLR,,0.00,WeatherDisplay:10.37,2013-03-21 09:35:00,
2013-03-21 05:40:00,19.0,10.8,30.02,NNW,330,4.0,4.0,70,0.00,CLR,,0.00,WeatherDisplay:10.37,2013-03-21 09:40:00,
2013-03-21 05:45:00,19.0,10.8,30.02,NNW,330,3.0,3.0,70,0.00,CLR,,0.00,WeatherDisplay:10.37,2013-03-21 09:45:00,
2013-03-21 05:50:00,19.0,10.8,30.02,NNW,330,3.5,3.5,70,0.00,CLR,,0.00,WeatherDisplay:10.37,2013-03-21 09:50:00,
2013-03-21 05:55:00,18.9,10.7,30.02,NNW,329,3.5,3.5,70,0.00,CLR,,0.00,WeatherDisplay:10.37,2013-03-21 09:55:00,
2013-03-21 06:00:00,18.9,10.7,30.02,NNW,329,3.5,3.5,70,0.00,CLR,,0.00,WeatherDisplay:10.37,2013-03-21 10:00:00,
2013-03-21 06:05:00,18.9,10.4,30.02,NNW,328,3.5,3.5,69,0.00,CLR,,0.00,WeatherDisplay:10.37,2013-03-21 10:05:00,
2013-03-21 06:10:00,18.9,10.4,30.02,NNW,328,1.1,1.1,69,0.00,CLR,,0.00,WeatherDisplay:10.37,2013-03-21 10:10:00,
2013-03-21 06:15:00,18.9,10.4,30.02,NNW,328,2.3,2.3,69,0.00,CLR,,0.00,WeatherDisplay:10.37,2013-03-21 10:15:00,
2013-03-21 06:20:00,18.9,10.4,30.02,NNW,328,2.3,2.3,69,0.00,CLR,,0.00,WeatherDisplay:10.37,2013-03-21 10:20:00,
2013-03-21 06:25:00,18.9,10.4,30.02,NNW,328,3.0,3.0,69,0.00,CLR,,0.00,WeatherDisplay:10.37,2013-03-21 10:25:00,
2013-03-21 06:30:00,18.9,10.4,30.02,NNW,328,1.0,1.0,69,0.00,CLR,,0.00,WeatherDisplay:10.37,2013-03-21 10:30:00,
2013-03-21 06:35:00,18.8,10.3,30.02,NNW,328,1.0,1.0,69,0.00,CLR,,0.00,WeatherDisplay:10.37,2013-03-21 10:35:00,
2013-03-21 06:40:00,18.8,10.3,30.02,NNW,328,1.1,1.1,69,0.00,CLR,,0.00,WeatherDisplay:10.37,2013-03-21 10:40:00,
2013-03-21 06:45:00,18.6,10.1,30.02,NNW,328,2.0,2.0,69,0.00,CLR,,0.00,WeatherDisplay:10.37,2013-03-21 10:45:00,
2013-03-21 06:50:00,18.6,10.1,30.02,NNW,328,2.3,2.3,69,0.00,CLR,,0.00,WeatherDisplay:10.37,2013-03-21 10:50:00,
2013-03-21 06:55:00,18.6,10.1,30.02,NNW,328,1.1,0.0,69,0.00,CLR,,0.00,WeatherDisplay:10.37,2013-03-21 10:55:00,
2013-03-21 07:00:00,18.6,10.1,30.02,NNW,328,1.1,0.0,69,0.00,CLR,,0.00,WeatherDisplay:10.37,2013-03-21 11:00:00,
2013-03-21 07:05:00,18.5,10.0,30.02,NNW,328,3.0,3.0,69,0.00,CLR,,0.00,WeatherDisplay:10.37,2013-03-21 11:05:00,
2013-03-21 07:10:00,18.5,10.0,30.02,NNW,328,2.3,2.3,69,0.00,CLR,,0.00,WeatherDisplay:10.37,2013-03-21 11:10:00,
2013-03-21 07:15:00,18.5,10.0,30.02,NNW,328,1.1,1.1,69,0.00,CLR,,0.00,WeatherDisplay:10.37,2013-03-21 11:15:00,
2013-03-21 07:20:00,18.5,9.7,30.02,NNW,328,2.3,2.3,68,0.00,CLR,,0.00,WeatherDisplay:10.37,2013-03-21 11:20:00,
2013-03-21 07:25:00,18.6,9.8,30.02,NNW,328,3.5,3.5,68,0.00,CLR,,0.00,WeatherDisplay:10.37,2013-03-21 11:25:00,
2013-03-21 07:30:00,18.6,9.8,30.02,NNW,328,3.5,3.5,68,0.00,CLR,,0.00,WeatherDisplay:10.37,2013-03-21 11:30:00,
2013-03-21 07:35:00,18.8,9.6,30.02,NNW,330,3.5,3.5,67,0.00,CLR,,0.00,WeatherDisplay:10.37,2013-03-21 11:35:00,
2013-03-21 07:40:00,18.8,9.6,30.02,NW,326,5.0,5.0,67,0.00,CLR,,0.00,WeatherDisplay:10.37,2013-03-21 11:40:00,
2013-03-21 07:45:00,18.8,9.6,30.02,NNW,327,2.0,2.0,67,0.00,CLR,,0.00,WeatherDisplay:10.37,2013-03-21 11:45:00,
2013-03-21 07:50:00,18.7,9.6,30.02,NNW,327,2.3,2.3,67,0.00,CLR,,0.00,WeatherDisplay:10.37,2013-03-21 11:50:00,
2013-03-21 07:55:00,18.6,9.5,30.02,NNW,327,1.1,0.0,67,0.00,CLR,,0.00,WeatherDisplay:10.37,2013-03-21 11:55:00,
2013-03-21 08:00:00,18.6,9.5,30.03,NNW,327,3.5,3.5,67,0.00,CLR,,0.00,WeatherDisplay:10.37,2013-03-21 12:00:00,
2013-03-21 08:05:00,18.7,9.6,30.03,NW,326,3.5,3.5,67,0.00,CLR,,0.00,WeatherDisplay:10.37,2013-03-21 12:05:00,
2013-03-21 08:10:00,18.8,9.6,30.03,NW,326,3.0,3.0,67,0.00,CLR,,0.00,WeatherDisplay:10.37,2013-03-21 12:10:00,
2013-03-21 08:15:00,18.8,9.6,30.03,NNW,327,1.1,1.1,67,0.00,CLR,,0.00,WeatherDisplay:10.37,2013-03-21 12:15:00,
2013-03-21 08:20:00,18.9,9.7,30.03,NW,326,3.5,3.5,67,0.00,CLR,,0.00,WeatherDisplay:10.37,2013-03-21 12:20:00,
2013-03-21 08:25:00,19.0,9.8,30.03,NNW,327,2.3,2.3,67,0.00,CLR,,0.00,WeatherDisplay:10.37,2013-03-21 12:25:00,
2013-03-21 08:30:00,19.3,10.1,30.03,NNW,328,4.6,4.6,67,0.00,CLR,,0.00,WeatherDisplay:10.37,2013-03-21 12:30:00,
2013-03-21 08:35:00,19.5,10.3,30.03,NNW,328,4.0,4.0,67,0.00,CLR,,0.00,WeatherDisplay:10.37,2013-03-21 12:35:00,
2013-03-21 08:40:00,19.7,10.5,30.03,NNW,330,4.0,4.0,67,0.00,CLR,,0.00,WeatherDisplay:10.37,2013-03-21 12:40:00,
2013-03-21 08:45:00,19.7,10.5,30.03,NNW,331,4.0,4.0,67,0.00,CLR,,0.00,WeatherDisplay:10.37,2013-03-21 12:45:00,
2013-03-21 08:50:00,19.7,10.5,30.04,NNW,329,6.0,6.0,67,0.00,CLR,,0.00,WeatherDisplay:10.37,2013-03-21 12:50:00,
2013-03-21 08:55:00,19.7,10.8,30.04,NNW,330,3.5,3.5,68,0.00,CLR,,0.00,WeatherDisplay:10.37,2013-03-21 12:55:00,
2013-03-21 09:00:00,19.7,10.8,30.04,NNW,330,3.5,0.0,68,0.00,CLR,,0.00,WeatherDisplay:10.37,2013-03-21 13:00:00,
2013-03-21 09:05:00,19.9,11.0,30.04,NNW,330,2.3,2.3,68,0.00,CLR,,0.00,WeatherDisplay:10.37,2013-03-21 13:05:00,
2013-03-21 09:10:00,20.1,11.2,30.04,NNW,330,3.5,3.5,68,0.00,CLR,,0.00,WeatherDisplay:10.37,2013-03-21 13:10:00,
2013-03-21 09:15:00,20.4,11.5,30.05,NNW,332,4.0,4.0,68,0.00,CLR,,0.00,WeatherDisplay:10.37,2013-03-21 13:15:00,
2013-03-21 09:20:00,20.6,12.0,30.05,NNW,332,2.3,2.3,69,0.00,CLR,,0.00,WeatherDisplay:10.37,2013-03-21 13:20:00,
2013-03-21 09:25:00,20.7,12.5,30.05,NNW,333,3.5,3.5,70,0.00,CLR,,0.00,WeatherDisplay:10.37,2013-03-21 13:25:00,
2013-03-21 09:30:00,20.9,12.6,30.05,NNW,332,3.0,3.0,70,0.00,CLR,,0.00,WeatherDisplay:10.37,2013-03-21 13:30:00,
2013-03-21 09:35:00,21.0,13.1,30.05,NNW,332,3.0,3.0,71,0.00,CLR,,0.00,WeatherDisplay:10.37,2013-03-21 13:35:00,
2013-03-21 09:40:00,21.1,13.2,30.06,NNW,342,5.0,5.0,71,0.00,CLR,,0.00,WeatherDisplay:10.37,2013-03-21 13:40:00,
2013-03-21 09:45:00,21.0,12.7,30.06,NNE,20,10.4,10.4,70,0.00,CLR,,0.00,WeatherDisplay:10.37,2013-03-21 13:45:00,
2013-03-21 09:50:00,21.0,13.1,30.07,North,353,5.0,5.0,71,0.00,CLR,,0.00,WeatherDisplay:10.37,2013-03-21 13:50:00,
2013-03-21 09:55:00,21.0,13.4,30.07,NNE,31,7.0,7.0,72,0.00,CLR,,0.00,WeatherDisplay:10.37,2013-03-21 13:55:00,
2013-03-21 10:00:00,21.2,13.6,30.06,NNE,17,6.0,6.0,72,0.00,CLR,,0.00,WeatherDisplay:10.37,2013-03-21 14:00:00,
2013-03-21 10:05:00,21.3,13.4,30.07,NNE,16,4.0,4.0,71,0.00,BKN,,0.00,WeatherDisplay:10.37,2013-03-21 14:05:00,
2013-03-21 10:10:00,21.3,12.7,30.07,North,7,8.1,8.1,69,0.00,BKN,,0.00,WeatherDisplay:10.37,2013-03-21 14:10:00,
2013-03-21 10:15:00,21.5,12.2,30.07,North,357,5.0,5.0,67,0.00,BKN,,0.00,WeatherDisplay:10.37,2013-03-21 14:15:00,
2013-03-21 10:20:00,21.7,12.4,30.07,North,7,9.2,9.2,67,0.00,BKN,,0.00,WeatherDisplay:10.37,2013-03-21 14:20:00,
2013-03-21 10:25:00,21.9,12.6,30.07,NNE,12,4.6,4.6,67,0.00,BKN,,0.00,WeatherDisplay:10.37,2013-03-21 14:25:00,
2013-03-21 10:30:00,22.0,12.7,30.07,NNE,12,8.1,8.1,67,0.00,BKN,,0.00,WeatherDisplay:10.37,2013-03-21 14:30:00,
2013-03-21 10:35:00,21.9,12.6,30.07,NNE,31,6.9,6.9,67,0.00,BKN,,0.00,WeatherDisplay:10.37,2013-03-21 14:35:00,
2013-03-21 10:40:00,21.7,12.8,30.07,NNW,333,5.0,5.0,68,0.00,BKN,,0.00,WeatherDisplay:10.37,2013-03-21 14:40:00,
2013-03-21 10:45:00,21.8,13.2,30.08,NNE,12,5.0,5.0,69,0.00,BKN,,0.00,WeatherDisplay:10.37,2013-03-21 14:45:00,
2013-03-21 10:50:00,21.7,13.4,30.07,NNW,348,7.0,7.0,70,0.00,BKN,,0.00,WeatherDisplay:10.37,2013-03-21 14:50:00,
2013-03-21 10:55:00,21.2,14.2,30.08,North,7,7.0,7.0,74,0.00,BKN,,0.00,WeatherDisplay:10.37,2013-03-21 14:55:00,
2013-03-21 11:00:00,20.9,14.5,30.08,North,2,5.0,5.0,76,0.00,BKN,,0.00,WeatherDisplay:10.37,2013-03-21 15:00:00,
2013-03-21 11:05:00,20.8,14.7,30.08,North,353,4.0,4.0,77,0.00,-SN,,0.00,WeatherDisplay:10.37,2013-03-21 15:05:00,
2013-03-21 11:10:00,20.8,15.0,30.08,North,357,4.0,4.0,78,0.00,-SN,,0.00,WeatherDisplay:10.37,2013-03-21 15:10:00,
2013-03-21 11:15:00,21.3,15.5,30.09,North,357,4.6,4.6,78,0.00,-SN,,0.00,WeatherDisplay:10.37,2013-03-21 15:15:00,
2013-03-21 11:20:00,21.6,15.8,30.09,NNE,20,5.8,5.8,78,0.00,-SN,,0.00,WeatherDisplay:10.37,2013-03-21 15:20:00,
2013-03-21 11:25:00,22.0,15.6,30.09,North,7,3.5,3.5,76,0.00,-SN,,0.00,WeatherDisplay:10.37,2013-03-21 15:25:00,
2013-03-21 11:30:00,22.6,14.9,30.09,NNW,347,5.0,5.0,72,0.00,-SN,,0.00,WeatherDisplay:10.37,2013-03-21 15:30:00,
2013-03-21 11:35:00,23.6,15.6,30.09,NNW,347,4.0,4.0,71,0.00,-SN,,0.00,WeatherDisplay:10.37,2013-03-21 15:35:00,
2013-03-21 11:40:00,23.8,14.8,30.09,NE,37,7.0,7.0,68,0.00,-SN,,0.00,WeatherDisplay:10.37,2013-03-21 15:40:00,
2013-03-21 11:45:00,23.3,15.3,30.10,NNW,336,10.4,10.4,71,0.00,-SN,,0.00,WeatherDisplay:10.37,2013-03-21 15:45:00,
2013-03-21 11:50:00,21.9,14.9,30.10,NW,322,11.0,11.0,74,0.00,-SN,,0.00,WeatherDisplay:10.37,2013-03-21 15:50:00,
2013-03-21 11:55:00,21.1,14.4,30.10,NNW,345,10.4,10.4,75,0.00,-SN,,0.00,WeatherDisplay:10.37,2013-03-21 15:55:00,
2013-03-21 12:00:00,21.1,14.7,30.10,North,349,5.8,5.8,76,0.00,-SN,,0.00,WeatherDisplay:10.37,2013-03-21 16:00:00,
2013-03-21 12:05:00,22.0,15.9,30.10,NW,317,5.8,5.8,77,0.00,-SN,,0.00,WeatherDisplay:10.37,2013-03-21 16:05:00,
2013-03-21 12:10:00,22.1,14.4,30.10,North,349,6.9,6.9,72,0.00,-SN,,0.00,WeatherDisplay:10.37,2013-03-21 16:10:00,
2013-03-21 12:15:00,22.8,14.1,30.09,North,351,5.8,5.8,69,0.00,-SN,,0.00,WeatherDisplay:10.37,2013-03-21 16:15:00,
2013-03-21 12:20:00,23.9,15.2,30.09,WNW,286,3.5,3.5,69,0.00,-SN,,0.00,WeatherDisplay:10.37,2013-03-21 16:20:00,
2013-03-21 12:25:00,24.2,14.8,30.09,NW,306,4.6,4.6,67,0.00,-SN,,0.00,WeatherDisplay:10.37,2013-03-21 16:25:00,
2013-03-21 12:30:00,23.9,12.0,30.09,NW,311,5.0,5.0,60,0.00,-SN,,0.00,WeatherDisplay:10.37,2013-03-21 16:30:00,
2013-03-21 12:35:00,24.4,12.9,30.09,WNW,301,5.0,5.0,61,0.00,-SN,,0.00,WeatherDisplay:10.37,2013-03-21 16:35:00,
2013-03-21 12:40:00,24.3,13.5,30.09,North,356,4.0,4.0,63,0.00,-SN,,0.00,WeatherDisplay:10.37,2013-03-21 16:40:00,
2013-03-21 12:45:00,23.8,13.7,30.09,NNW,344,6.0,6.0,65,0.00,-SN,,0.00,WeatherDisplay:10.37,2013-03-21 16:45:00,
2013-03-21 12:50:00,23.6,12.1,30.09,NE,51,8.0,8.0,61,0.00,-SN,,0.00,WeatherDisplay:10.37,2013-03-21 16:50:00,
2013-03-21 12:55:00,24.2,11.5,30.09,West,278,5.8,5.8,58,0.00,-SN,,0.00,WeatherDisplay:10.37,2013-03-21 16:55:00,
2013-03-21 13:00:00,25.0,12.3,30.09,NW,307,5.0,5.0,58,0.00,-SN,,0.00,WeatherDisplay:10.37,2013-03-21 17:00:00,
2013-03-21 13:05:00,25.1,11.2,30.09,North,352,10.4,10.4,55,0.00,OVC,,0.00,WeatherDisplay:10.37,2013-03-21 17:05:00,
2013-03-21 13:10:00,24.9,11.8,30.09,NNW,347,6.0,6.0,57,0.00,OVC,,0.00,WeatherDisplay:10.37,2013-03-21 17:10:00,
2013-03-21 13:15:00,24.8,12.1,30.09,North,2,8.0,8.0,58,0.00,OVC,,0.00,WeatherDisplay:10.37,2013-03-21 17:15:00,
2013-03-21 13:20:00,25.3,12.2,30.09,NNW,345,6.0,6.0,57,0.00,OVC,,0.00,WeatherDisplay:10.37,2013-03-21 17:20:00,
2013-03-21 13:25:00,26.0,12.0,30.09,WSW,245,10.0,10.0,55,0.00,OVC,,0.00,WeatherDisplay:10.37,2013-03-21 17:25:00,
2013-03-21 13:30:00,26.1,12.1,30.09,NNW,347,6.9,6.9,55,0.00,OVC,,0.00,WeatherDisplay:10.37,2013-03-21 17:30:00,
2013-03-21 13:35:00,25.8,11.0,30.10,NNW,333,4.0,4.0,53,0.00,OVC,,0.00,WeatherDisplay:10.37,2013-03-21 17:35:00,
2013-03-21 13:40:00,26.0,11.6,30.10,NNW,345,6.9,6.9,54,0.00,OVC,,0.00,WeatherDisplay:10.37,2013-03-21 17:40:00,
2013-03-21 13:45:00,26.5,11.2,30.09,NNE,16,11.5,11.5,52,0.00,OVC,,0.00,WeatherDisplay:10.37,2013-03-21 17:45:00,
2013-03-21 13:50:00,26.4,11.1,30.10,North,355,6.9,6.9,52,0.00,OVC,,0.00,WeatherDisplay:10.37,2013-03-21 17:50:00,
2013-03-21 13:55:00,26.2,12.2,30.10,NNE,30,7.0,7.0,55,0.00,OVC,,0.00,WeatherDisplay:10.37,2013-03-21 17:55:00,
2013-03-21 14:01:00,25.8,12.6,30.10,NNW,332,10.4,10.4,57,0.00,OVC,,0.00,WeatherDisplay:10.37,2013-03-21 18:01:00,
2013-03-21 14:06:00,26.1,12.1,30.09,NNW,344,6.0,6.0,55,0.00,OVC,,0.00,WeatherDisplay:10.37,2013-03-21 18:06:00,
2013-03-21 14:11:00,26.3,11.9,30.10,NNE,21,9.0,9.0,54,0.00,OVC,,0.00,WeatherDisplay:10.37,2013-03-21 18:11:00,
2013-03-21 14:16:00,25.8,11.8,30.10,NNW,336,10.4,10.4,55,0.00,OVC,,0.00,WeatherDisplay:10.37,2013-03-21 18:16:00,
2013-03-21 14:22:00,25.5,12.4,30.10,NNE,22,9.2,9.2,57,0.00,OVC,,0.00,WeatherDisplay:10.37,2013-03-21 18:22:00,
2013-03-21 14:27:00,25.5,12.0,30.10,NNE,32,9.2,9.2,56,0.00,OVC,,0.00,WeatherDisplay:10.37,2013-03-21 18:27:00,
2013-03-21 14:32:00,25.7,12.2,30.10,NNW,344,3.5,3.5,56,0.00,OVC,,0.00,WeatherDisplay:10.37,2013-03-21 18:32:00,
2013-03-21 14:37:00,26.2,12.2,30.09,NNE,16,6.0,6.0,55,0.00,OVC,,0.00,WeatherDisplay:10.37,2013-03-21 18:37:00,
2013-03-21 14:42:00,27.3,12.4,30.09,NE,51,8.1,8.1,53,0.00,OVC,,0.00,WeatherDisplay:10.37,2013-03-21 18:42:00,
2013-03-21 14:47:00,27.9,12.5,30.09,North,2,6.0,6.0,52,0.00,OVC,,0.00,WeatherDisplay:10.37,2013-03-21 18:47:00,
2013-03-21 14:52:00,28.6,11.8,30.09,North,7,8.1,8.1,49,0.00,OVC,,0.00,WeatherDisplay:10.37,2013-03-21 18:52:00,
2013-03-21 14:57:00,28.5,12.6,30.09,NW,306,6.0,6.0,51,0.00,OVC,,0.00,WeatherDisplay:10.37,2013-03-21 18:57:00,
2013-03-21 15:02:00,28.0,12.2,30.09,North,349,5.0,5.0,51,0.00,OVC,,0.00,WeatherDisplay:10.37,2013-03-21 19:02:00,
2013-03-21 15:07:00,27.5,11.7,30.09,NNE,16,7.0,7.0,51,0.00,OVC,,0.00,WeatherDisplay:10.37,2013-03-21 19:07:00,
2013-03-21 15:12:00,27.5,11.7,30.09,WNW,295,3.5,3.5,51,0.00,OVC,,0.00,WeatherDisplay:10.37,2013-03-21 19:12:00,
2013-03-21 15:17:00,28.0,12.2,30.08,WNW,303,4.0,4.0,51,0.00,OVC,,0.00,WeatherDisplay:10.37,2013-03-21 19:17:00,
2013-03-21 15:22:00,28.5,12.6,30.08,WNW,284,6.9,6.9,51,0.00,OVC,,0.00,WeatherDisplay:10.37,2013-03-21 19:22:00,
2013-03-21 15:27:00,28.9,12.6,30.09,NW,320,10.4,10.4,50,0.00,OVC,,0.00,WeatherDisplay:10.37,2013-03-21 19:27:00,
2013-03-21 15:32:00,28.7,11.5,30.08,North,351,7.0,7.0,48,0.00,OVC,,0.00,WeatherDisplay:10.37,2013-03-21 19:32:00,
2013-03-21 15:37:00,29.0,11.7,30.09,WNW,291,6.9,6.9,48,0.00,OVC,,0.00,WeatherDisplay:10.37,2013-03-21 19:37:00,
2013-03-21 15:42:00,29.0,12.7,30.08,NE,47,6.0,6.0,50,0.00,OVC,,0.00,WeatherDisplay:10.37,2013-03-21 19:42:00,
2013-03-21 15:47:00,29.4,12.1,30.08,NW,321,5.0,5.0,48,0.00,OVC,,0.00,WeatherDisplay:10.37,2013-03-21 19:47:00,
2013-03-21 15:53:00,29.4,11.6,30.08,NW,309,6.0,6.0,47,0.00,OVC,,0.00,WeatherDisplay:10.37,2013-03-21 19:53:00,
2013-03-21 15:58:00,29.1,10.9,30.08,North,355,9.2,9.2,46,0.00,OVC,,0.00,WeatherDisplay:10.37,2013-03-21 19:58:00,
2013-03-21 16:03:00,28.5,11.7,30.08,NE,44,10.4,10.4,49,0.00,OVC,,0.00,WeatherDisplay:10.37,2013-03-21 20:03:00,
2013-03-21 16:08:00,28.8,11.6,30.08,North,2,3.5,3.5,48,0.00,OVC,,0.00,WeatherDisplay:10.37,2013-03-21 20:08:00,
2013-03-21 16:13:00,29.8,12.0,30.08,WSW,253,9.0,9.0,47,0.00,OVC,,0.00,WeatherDisplay:10.37,2013-03-21 20:13:00,
2013-03-21 16:18:00,29.4,11.1,30.08,NW,326,5.0,5.0,46,0.00,OVC,,0.00,WeatherDisplay:10.37,2013-03-21 20:18:00,
2013-03-21 16:23:00,29.7,11.9,30.08,NW,323,4.6,4.6,47,0.00,OVC,,0.00,WeatherDisplay:10.37,2013-03-21 20:23:00,
2013-03-21 16:28:00,30.7,13.3,30.08,North,2,5.0,5.0,48,0.00,OVC,,0.00,WeatherDisplay:10.37,2013-03-21 20:28:00,
2013-03-21 16:34:00,30.8,12.9,30.08,ENE,60,9.2,9.2,47,0.00,OVC,,0.00,WeatherDisplay:10.37,2013-03-21 20:34:00,
2013-03-21 16:39:00,30.7,12.8,30.08,North,354,7.0,7.0,47,0.00,OVC,,0.00,WeatherDisplay:10.37,2013-03-21 20:39:00,
2013-03-21 16:44:00,30.3,12.5,30.08,NE,55,7.0,7.0,47,0.00,OVC,,0.00,WeatherDisplay:10.37,2013-03-21 20:44:00,
2013-03-21 16:49:00,30.2,11.9,30.08,North,7,5.0,5.0,46,0.00,OVC,,0.00,WeatherDisplay:10.37,2013-03-21 20:49:00,
2013-03-21 16:54:00,29.7,11.9,30.08,NNW,348,5.0,5.0,47,0.00,OVC,,0.00,WeatherDisplay:10.37,2013-03-21 20:54:00,
2013-03-21 16:59:00,29.0,11.3,30.08,NNE,24,1.0,1.0,47,0.00,OVC,,0.00,WeatherDisplay:10.37,2013-03-21 20:59:00,
2013-03-21 17:04:00,29.7,12.4,30.08,NNE,20,5.0,5.0,48,0.00,OVC,,0.00,WeatherDisplay:10.37,2013-03-21 21:04:00,
2013-03-21 17:09:00,30.6,12.2,30.08,NE,56,7.0,7.0,46,0.00,OVC,,0.00,WeatherDisplay:10.37,2013-03-21 21:09:00,
2013-03-21 17:14:00,30.7,11.8,30.08,NE,50,11.0,11.0,45,0.00,OVC,,0.00,WeatherDisplay:10.37,2013-03-21 21:14:00,
2013-03-21 17:19:00,30.8,11.9,30.08,NE,53,2.3,2.3,45,0.00,OVC,,0.00,WeatherDisplay:10.37,2013-03-21 21:19:00,
2013-03-21 17:24:00,31.6,12.7,30.08,NE,54,3.5,3.5,45,0.00,OVC,,0.00,WeatherDisplay:10.37,2013-03-21 21:24:00,
2013-03-21 17:29:00,32.0,12.5,30.08,NNW,347,9.2,9.2,44,0.00,OVC,,0.00,WeatherDisplay:10.37,2013-03-21 21:29:00,
2013-03-21 17:35:00,31.4,11.5,30.08,West,261,6.0,6.0,43,0.00,OVC,,0.00,WeatherDisplay:10.37,2013-03-21 21:35:00,
2013-03-21 17:40:00,31.2,11.8,30.08,WNW,293,2.3,2.3,44,0.00,OVC,,0.00,WeatherDisplay:10.37,2013-03-21 21:40:00,
2013-03-21 17:45:00,31.0,11.6,30.07,WNW,293,1.1,0.0,44,0.00,OVC,,0.00,WeatherDisplay:10.37,2013-03-21 21:45:00,
2013-03-21 17:50:00,31.1,11.7,30.08,WNW,293,2.3,2.3,44,0.00,OVC,,0.00,WeatherDisplay:10.37,2013-03-21 21:50:00,
2013-03-21 17:55:00,31.6,11.6,30.08,NW,304,5.0,5.0,43,0.00,OVC,,0.00,WeatherDisplay:10.37,2013-03-21 21:55:00,
2013-03-21 18:00:00,31.7,11.7,30.07,NNW,336,2.3,2.3,43,0.00,OVC,,0.00,WeatherDisplay:10.37,2013-03-21 22:00:00,
2013-03-21 18:05:00,32.3,11.7,30.07,NNW,336,3.5,3.5,42,0.00,SCT,,0.00,WeatherDisplay:10.37,2013-03-21 22:05:00,
2013-03-21 18:10:00,31.8,11.3,30.07,NNW,338,5.0,5.0,42,0.00,SCT,,0.00,WeatherDisplay:10.37,2013-03-21 22:10:00,
2013-03-21 18:15:00,30.5,10.1,30.08,NNW,338,2.3,2.3,42,0.00,SCT,,0.00,WeatherDisplay:10.37,2013-03-21 22:15:00,
2013-03-21 18:20:00,30.5,10.6,30.08,NNW,338,4.0,4.0,43,0.00,SCT,,0.00,WeatherDisplay:10.37,2013-03-21 22:20:00,
2013-03-21 18:25:00,30.9,11.0,30.08,NNW,339,1.1,0.0,43,0.00,SCT,,0.00,WeatherDisplay:10.37,2013-03-21 22:25:00,
2013-03-21 18:30:00,31.8,11.3,30.08,NNW,339,2.3,2.3,42,0.00,SCT,,0.00,WeatherDisplay:10.37,2013-03-21 22:30:00,
2013-03-21 18:35:00,31.7,11.2,30.08,NNW,340,3.5,3.5,42,0.00,SCT,,0.00,WeatherDisplay:10.37,2013-03-21 22:35:00,
2013-03-21 18:40:00,31.5,11.5,30.08,NNW,340,1.1,0.0,43,0.00,SCT,,0.00,WeatherDisplay:10.37,2013-03-21 22:40:00,
2013-03-21 18:45:00,31.6,11.1,30.07,NNW,340,1.1,1.1,42,0.00,SCT,,0.00,WeatherDisplay:10.37,2013-03-21 22:45:00,
2013-03-21 18:50:00,31.1,10.6,30.08,NNW,340,3.5,3.5,42,0.00,SCT,,0.00,WeatherDisplay:10.37,2013-03-21 22:50:00,
2013-03-21 18:55:00,30.8,10.9,30.07,NNW,340,0.0,0.0,43,0.00,SCT,,0.00,WeatherDisplay:10.37,2013-03-21 22:55:00,
2013-03-21 19:00:00,30.6,10.7,30.08,NNW,340,3.5,3.5,43,0.00,SCT,,0.00,WeatherDisplay:10.37,2013-03-21 23:00:00,
2013-03-21 19:05:00,30.2,10.9,30.08,NNW,340,0.0,0.0,44,0.00,SCT,,0.00,WeatherDisplay:10.37,2013-03-21 23:05:00,
2013-03-21 19:10:00,30.5,11.1,30.08,NNW,340,2.3,2.3,44,0.00,SCT,,0.00,WeatherDisplay:10.37,2013-03-21 23:10:00,
2013-03-21 19:15:00,30.6,10.7,30.08,NNW,340,2.3,0.0,43,0.00,SCT,,0.00,WeatherDisplay:10.37,2013-03-21 23:15:00,
2013-03-21 19:20:00,30.8,11.4,30.08,NNW,340,0.0,0.0,44,0.00,SCT,,0.00,WeatherDisplay:10.37,2013-03-21 23:20:00,
2013-03-21 19:25:00,31.1,11.2,30.08,NNW,340,0.0,0.0,43,0.00,SCT,,0.00,WeatherDisplay:10.37,2013-03-21 23:25:00,
2013-03-21 19:31:00,30.9,11.0,30.08,NNW,340,0.0,0.0,43,0.00,SCT,,0.00,WeatherDisplay:10.37,2013-03-21 23:31:00,
2013-03-21 19:36:00,30.8,10.9,30.08,NNW,340,0.0,0.0,43,0.00,SCT,,0.00,WeatherDisplay:10.37,2013-03-21 23:36:00,
2013-03-21 19:41:00,30.6,10.7,30.08,NNW,340,1.0,0.0,43,0.00,SCT,,0.00,WeatherDisplay:10.37,2013-03-21 23:41:00,
2013-03-21 19:46:00,30.3,10.4,30.08,NNW,340,0.0,0.0,43,0.00,SCT,,0.00,WeatherDisplay:10.37,2013-03-21 23:46:00,
2013-03-21 19:52:00,29.8,10.5,30.08,NNW,340,0.0,0.0,44,0.00,SCT,,0.00,WeatherDisplay:10.37,2013-03-21 23:52:00,
2013-03-21 19:57:00,29.6,10.3,30.08,NNW,340,0.0,0.0,44,0.00,SCT,,0.00,WeatherDisplay:10.37,2013-03-21 23:57:00,
2013-03-21 20:03:00,29.2,10.5,30.08,NNW,340,1.0,1.0,45,0.00,CLR,,0.00,WeatherDisplay:10.37,2013-03-22 00:03:00,
2013-03-21 20:08:00,29.0,10.3,30.08,NNW,340,0.0,0.0,45,0.00,CLR,,0.00,WeatherDisplay:10.37,2013-03-22 00:08:00,
2013-03-21 20:13:00,28.8,10.1,30.08,NNW,340,0.0,0.0,45,0.00,CLR,,0.00,WeatherDisplay:10.37,2013-03-22 00:13:00,
2013-03-21 20:18:00,28.5,9.8,30.08,NNW,340,0.0,0.0,45,0.00,CLR,,0.00,WeatherDisplay:10.37,2013-03-22 00:18:00,
2013-03-21 20:23:00,28.3,10.1,30.09,NNW,340,0.0,0.0,46,0.00,CLR,,0.00,WeatherDisplay:10.37,2013-03-22 00:23:00,
2013-03-21 20:28:00,28.1,9.9,30.09,NNW,340,0.0,0.0,46,0.00,CLR,,0.00,WeatherDisplay:10.37,2013-03-22 00:28:00,
2013-03-21 20:33:00,28.0,9.9,30.09,NNW,340,0.0,0.0,46,0.00,CLR,,0.00,WeatherDisplay:10.37,2013-03-22 00:33:00,
2013-03-21 20:38:00,27.9,10.2,30.09,NNW,340,0.0,0.0,47,0.00,CLR,,0.00,WeatherDisplay:10.37,2013-03-22 00:38:00,
2013-03-21 20:43:00,27.8,10.2,30.09,NNW,340,0.0,0.0,47,0.00,CLR,,0.00,WeatherDisplay:10.37,2013-03-22 00:43:00,
2013-03-21 20:48:00,27.7,10.1,30.10,NNW,340,0.0,0.0,47,0.00,CLR,,0.00,WeatherDisplay:10.37,2013-03-22 00:48:00,
2013-03-21 20:53:00,27.6,10.0,30.10,NNW,340,0.0,0.0,47,0.00,CLR,,0.00,WeatherDisplay:10.37,2013-03-22 00:53:00,
2013-03-21 20:58:00,27.4,10.3,30.10,NNW,340,0.0,0.0,48,0.00,CLR,,0.00,WeatherDisplay:10.37,2013-03-22 00:58:00,
2013-03-21 21:03:00,27.2,10.1,30.10,NNW,340,0.0,0.0,48,0.00,CLR,,0.00,WeatherDisplay:10.37,2013-03-22 01:03:00,
2013-03-21 21:08:00,27.0,10.4,30.10,NNW,340,0.0,0.0,49,0.00,CLR,,0.00,WeatherDisplay:10.37,2013-03-22 01:08:00,
2013-03-21 21:13:00,26.7,10.5,30.11,NNW,340,0.0,0.0,50,0.00,CLR,,0.00,WeatherDisplay:10.37,2013-03-22 01:13:00,
2013-03-21 21:18:00,26.6,10.4,30.10,NNW,340,0.0,0.0,50,0.00,CLR,,0.00,WeatherDisplay:10.37,2013-03-22 01:18:00,
2013-03-21 21:23:00,26.5,10.3,30.11,NNW,340,0.0,0.0,50,0.00,CLR,,0.00,WeatherDisplay:10.37,2013-03-22 01:23:00,
2013-03-21 21:28:00,26.4,10.7,30.11,NNW,340,0.0,0.0,51,0.00,CLR,,0.00,WeatherDisplay:10.37,2013-03-22 01:28:00,
2013-03-21 21:33:00,26.5,10.8,30.11,NNW,340,0.0,0.0,51,0.00,CLR,,0.00,WeatherDisplay:10.37,2013-03-22 01:33:00,
2013-03-21 21:38:00,26.7,11.0,30.11,NNW,340,0.0,0.0,51,0.00,CLR,,0.00,WeatherDisplay:10.37,2013-03-22 01:38:00,
2013-03-21 21:43:00,26.6,10.4,30.11,NNW,340,0.0,0.0,50,0.00,CLR,,0.00,WeatherDisplay:10.37,2013-03-22 01:43:00,
2013-03-21 21:48:00,26.3,10.6,30.11,NNW,340,0.0,0.0,51,0.00,CLR,,0.00,WeatherDisplay:10.37,2013-03-22 01:48:00,
2013-03-21 21:53:00,26.1,10.9,30.11,NNW,340,0.0,0.0,52,0.00,CLR,,0.00,WeatherDisplay:10.37,2013-03-22 01:53:00,
2013-03-21 21:58:00,25.9,10.7,30.11,NNW,340,0.0,0.0,52,0.00,CLR,,0.00,WeatherDisplay:10.37,2013-03-22 01:58:00,
2013-03-21 22:03:00,25.6,10.8,30.11,NNW,340,0.0,0.0,53,0.00,CLR,,0.00,WeatherDisplay:10.37,2013-03-22 02:03:00,
2013-03-21 22:08:00,25.3,10.5,30.11,NNW,340,0.0,0.0,53,0.00,CLR,,0.00,WeatherDisplay:10.37,2013-03-22 02:08:00,
2013-03-21 22:13:00,25.1,10.8,30.11,NNW,340,0.0,0.0,54,0.00,CLR,,0.00,WeatherDisplay:10.37,2013-03-22 02:13:00,
2013-03-21 22:18:00,24.9,10.6,30.11,NNW,340,0.0,0.0,54,0.00,CLR,,0.00,WeatherDisplay:10.37,2013-03-22 02:18:00,
2013-03-21 22:23:00,24.7,10.8,30.11,NNW,340,0.0,0.0,55,0.00,CLR,,0.00,WeatherDisplay:10.37,2013-03-22 02:23:00,
2013-03-21 22:28:00,24.5,11.0,30.11,NNW,340,0.0,0.0,56,0.00,CLR,,0.00,WeatherDisplay:10.37,2013-03-22 02:28:00,
2013-03-21 22:33:00,24.4,10.9,30.11,NNW,340,0.0,0.0,56,0.00,CLR,,0.00,WeatherDisplay:10.37,2013-03-22 02:33:00,
2013-03-21 22:38:00,24.5,11.0,30.12,NNW,340,0.0,0.0,56,0.00,CLR,,0.00,WeatherDisplay:10.37,2013-03-22 02:38:00,
2013-03-21 22:43:00,24.6,11.1,30.12,NNW,340,0.0,0.0,56,0.00,CLR,,0.00,WeatherDisplay:10.37,2013-03-22 02:43:00,
2013-03-21 22:49:00,24.9,11.4,30.12,NNW,340,0.0,0.0,56,0.00,CLR,,0.00,WeatherDisplay:10.37,2013-03-22 02:49:00,
2013-03-21 22:54:00,25.1,11.2,30.12,NNW,340,0.0,0.0,55,0.00,CLR,,0.00,WeatherDisplay:10.37,2013-03-22 02:54:00,
2013-03-21 22:59:00,25.2,11.3,30.12,NNW,340,0.0,0.0,55,0.00,CLR,,0.00,WeatherDisplay:10.37,2013-03-22 02:59:00,
2013-03-21 23:04:00,25.2,11.3,30.12,NNW,340,0.0,0.0,55,0.00,CLR,,0.00,WeatherDisplay:10.37,2013-03-22 03:04:00,
2013-03-21 23:09:00,25.2,11.3,30.12,NNW,340,0.0,0.0,55,0.00,CLR,,0.00,WeatherDisplay:10.37,2013-03-22 03:09:00,
2013-03-21 23:14:00,25.1,11.2,30.12,NNW,340,0.0,0.0,55,0.00,CLR,,0.00,WeatherDisplay:10.37,2013-03-22 03:14:00,
2013-03-21 23:19:00,24.8,10.9,30.12,NNW,340,0.0,0.0,55,0.00,CLR,,0.00,WeatherDisplay:10.37,2013-03-22 03:19:00,
2013-03-21 23:24:00,24.4,11.3,30.12,NNW,340,0.0,0.0,57,0.00,CLR,,0.00,WeatherDisplay:10.37,2013-03-22 03:24:00,
2013-03-21 23:29:00,24.3,11.2,30.12,NNW,340,0.0,0.0,57,0.00,CLR,,0.00,WeatherDisplay:10.37,2013-03-22 03:29:00,
2013-03-21 23:34:00,24.2,11.5,30.12,NNW,340,0.0,0.0,58,0.00,CLR,,0.00,WeatherDisplay:10.37,2013-03-22 03:34:00,
2013-03-21 23:39:00,24.2,11.9,30.12,NNW,340,0.0,0.0,59,0.00,CLR,,0.00,WeatherDisplay:10.37,2013-03-22 03:39:00,
2013-03-21 23:44:00,24.0,11.7,30.12,NNW,340,0.0,0.0,59,0.00,CLR,,0.00,WeatherDisplay:10.37,2013-03-22 03:44:00,
2013-03-21 23:49:00,23.7,11.8,30.12,NNW,340,0.0,0.0,60,0.00,CLR,,0.00,WeatherDisplay:10.37,2013-03-22 03:49:00,
2013-03-21 23:54:00,23.3,11.8,30.12,NNW,340,0.0,0.0,61,0.00,CLR,,0.00,WeatherDisplay:10.37,2013-03-22 03:54:00,
2013-03-21 23:59:00,22.9,11.8,30.12,NNW,340,0.0,0.0,62,0.00,CLR,,0.00,WeatherDisplay:10.37,2013-03-22 03:59:00,